createdAt,value
2023-01-18T00:04:27.003Z,48.41
2023-01-18T00:09:28.879Z,48.57
2023-01-18T00:14:30.819Z,48.64
2023-01-18T00:19:34.156Z,48.85
2023-01-18T00:24:36.144Z,48.81
2023-01-18T00:29:39.154Z,49.27
2023-01-18T00:34:41.865Z,49.45
2023-01-18T00:39:43.493Z,49.60
2023-01-18T00:44:45.604Z,49.27
2023-01-18T00:49:47.587Z,49.65
2023-01-18T00:54:49.497Z,49.35
2023-01-18T00:59:51.399Z,49.17
2023-01-18T01:05:12.198Z,49.46
2023-01-18T01:10:14.216Z,49.64
2023-01-18T01:15:34.626Z,49.69
2023-01-18T01:20:55.012Z,49.54
2023-01-18T01:26:05.884Z,49.98
2023-01-18T01:31:10.803Z,49.66
2023-01-18T01:36:15.396Z,49.58
2023-01-18T01:41:23.952Z,50.12
2023-01-18T01:46:33.958Z,50.08
2023-01-18T01:51:39.894Z,49.44
2023-01-18T01:56:43.765Z,49.54
2023-01-18T02:01:46.658Z,50.15
2023-01-18T02:06:48.698Z,49.67
2023-01-18T02:11:55.536Z,49.78
2023-01-18T02:17:12.285Z,49.84
2023-01-18T02:22:47.983Z,49.70
2023-01-18T02:28:07.179Z,49.82
2023-01-18T02:33:15.710Z,49.63
2023-01-18T02:38:37.670Z,49.59
2023-01-18T02:44:00.830Z,50.10
2023-01-18T02:49:22.838Z,49.82
2023-01-18T02:54:24.776Z,49.54
2023-01-18T02:59:33.299Z,49.93
2023-01-18T03:04:54.484Z,49.55
2023-01-18T03:09:58.767Z,49.91
2023-01-18T03:15:30.443Z,49.43
2023-01-18T03:20:38.174Z,49.57
2023-01-18T03:25:45.420Z,49.71
2023-01-18T03:31:08.892Z,49.56
2023-01-18T03:36:42.215Z,49.53
2023-01-18T03:41:49.368Z,49.51
2023-01-18T03:46:51.799Z,49.64
2023-01-18T03:52:15.543Z,50.29
2023-01-18T03:57:25.909Z,49.83
2023-01-18T04:02:28.692Z,50.25
2023-01-18T04:07:33.760Z,50.15
2023-01-18T04:12:35.668Z,49.93
2023-01-18T04:17:37.501Z,50.38
2023-01-18T04:22:39.686Z,50.26
2023-01-18T04:27:41.576Z,49.91
2023-01-18T04:32:46.289Z,50.26
2023-01-18T04:37:53.059Z,50.36
2023-01-18T04:42:55.221Z,50.07
2023-01-18T04:47:57.250Z,50.40
2023-01-18T04:52:59.426Z,50.24
2023-01-18T04:58:01.366Z,50.40
2023-01-18T05:03:03.161Z,50.29
2023-01-18T05:08:05.079Z,50.73
2023-01-18T05:13:07.374Z,50.06
2023-01-18T05:18:09.123Z,50.57
2023-01-18T05:23:11.193Z,50.44
2023-01-18T05:28:12.861Z,50.66
2023-01-18T05:33:14.558Z,50.69
2023-01-18T05:38:16.638Z,50.73
2023-01-18T05:43:19.884Z,51.08
2023-01-18T05:48:22.013Z,51.04
2023-01-18T05:53:24.348Z,51.33
2023-01-18T05:58:27.389Z,51.37
2023-01-18T06:03:29.166Z,51.38
2023-01-18T06:08:30.874Z,51.55
2023-01-18T06:13:32.996Z,51.75
2023-01-18T06:18:34.949Z,51.40
2023-01-18T06:23:36.603Z,51.45
2023-01-18T06:28:38.243Z,51.73
2023-01-18T06:33:40.177Z,51.58
2023-01-18T06:38:43.859Z,51.91
2023-01-18T06:43:47.476Z,51.83
2023-01-18T06:48:53.999Z,51.84
2023-01-18T06:54:05.526Z,51.71
2023-01-18T06:59:11.972Z,52.27
2023-01-18T07:04:14.265Z,51.70
2023-01-18T07:09:18.441Z,52.00
2023-01-18T07:14:21.790Z,51.83
2023-01-18T07:19:30.878Z,52.25
2023-01-18T07:24:36.346Z,52.36
2023-01-18T07:29:39.752Z,51.89
2023-01-18T07:34:46.642Z,51.76
2023-01-18T07:39:53.208Z,51.84
2023-01-18T07:45:03.661Z,52.18
2023-01-18T07:50:07.065Z,52.50
2023-01-18T07:55:17.124Z,52.24
2023-01-18T08:00:22.966Z,52.16
2023-01-18T08:05:32.000Z,52.14
2023-01-18T08:10:38.470Z,52.03
2023-01-18T08:15:46.231Z,52.32
2023-01-18T08:21:16.893Z,52.11
2023-01-18T08:26:18.869Z,51.76
2023-01-18T08:31:22.021Z,51.62
2023-01-18T08:36:25.796Z,51.69
2023-01-18T08:41:31.160Z,51.98
2023-01-18T08:46:32.977Z,51.87
2023-01-18T08:51:34.852Z,51.61
2023-01-18T08:56:36.710Z,51.97
2023-01-18T09:01:38.629Z,51.60
2023-01-18T09:06:40.574Z,51.84
2023-01-18T09:11:42.317Z,51.56
2023-01-18T09:16:44.528Z,52.21
2023-01-18T09:21:46.760Z,51.76
2023-01-18T09:26:52.396Z,51.86
2023-01-18T09:31:55.958Z,52.00
2023-01-18T09:36:58.266Z,51.96
2023-01-18T09:42:02.342Z,51.57
2023-01-18T09:47:24.181Z,51.63
2023-01-18T09:52:51.584Z,51.86
2023-01-18T09:57:56.578Z,51.94
2023-01-18T10:03:02.723Z,51.38
2023-01-18T10:08:13.536Z,51.40
2023-01-18T10:13:24.365Z,52.14
2023-01-18T10:18:26.224Z,51.89
2023-01-18T10:23:40.746Z,51.88
2023-01-18T10:28:55.503Z,51.61
2023-01-18T10:34:01.172Z,51.94
2023-01-18T10:39:13.410Z,51.72
2023-01-18T10:44:15.008Z,51.95
2023-01-18T10:49:40.930Z,51.22
2023-01-18T10:54:50.067Z,50.82
2023-01-18T10:59:53.760Z,51.10
2023-01-18T11:05:04.434Z,50.84
2023-01-18T11:10:09.694Z,50.61
2023-01-18T11:15:14.585Z,51.10
2023-01-18T11:20:23.391Z,50.45
2023-01-18T11:25:40.814Z,50.33
2023-01-18T11:31:00.829Z,50.88
2023-01-18T11:36:03.517Z,50.57
2023-01-18T11:41:20.100Z,50.04
2023-01-18T11:46:35.065Z,50.00
2023-01-18T11:51:45.902Z,50.28
2023-01-18T11:56:55.859Z,50.09
2023-01-18T12:02:35.453Z,49.85
2023-01-18T12:08:06.860Z,49.70
2023-01-18T12:13:33.848Z,49.57
2023-01-18T12:19:18.106Z,49.84
2023-01-18T12:24:34.006Z,49.61
2023-01-18T12:29:50.590Z,49.47
2023-01-18T12:35:23.814Z,49.05
2023-01-18T12:40:48.641Z,49.82
2023-01-18T12:46:19.445Z,49.59
2023-01-18T12:51:24.705Z,49.72
2023-01-18T12:56:33.177Z,49.58
2023-01-18T13:01:42.903Z,49.79
2023-01-18T13:06:47.276Z,49.72
2023-01-18T13:11:49.776Z,49.68
2023-01-18T13:17:04.308Z,49.72
2023-01-18T13:22:48.000Z,50.33
2023-01-18T13:28:00.688Z,50.18
2023-01-18T13:33:13.757Z,49.90
2023-01-18T13:38:27.500Z,50.35
2023-01-18T13:43:34.299Z,50.53
2023-01-18T13:48:45.409Z,50.55
2023-01-18T13:53:49.799Z,50.60
2023-01-18T13:58:55.028Z,50.62
2023-01-18T14:03:58.264Z,50.95
2023-01-18T14:09:18.332Z,50.80
2023-01-18T14:14:20.407Z,50.91
2023-01-18T14:19:23.056Z,50.99
2023-01-18T14:24:28.863Z,51.17
2023-01-18T14:29:44.453Z,50.59
2023-01-18T14:34:46.345Z,50.75
2023-01-18T14:39:48.191Z,50.60
2023-01-18T14:44:58.164Z,50.64
2023-01-18T14:50:04.803Z,51.07
2023-01-18T14:55:22.305Z,50.69
2023-01-18T15:00:24.927Z,51.17
2023-01-18T15:05:29.779Z,50.80
2023-01-18T15:10:32.004Z,50.77
2023-01-18T15:15:40.678Z,50.78
2023-01-18T15:21:02.337Z,50.57
2023-01-18T15:26:04.223Z,50.95
2023-01-18T15:31:13.559Z,50.99
2023-01-18T15:36:16.963Z,50.94
2023-01-18T15:41:18.659Z,50.90
2023-01-18T15:46:20.608Z,50.54
2023-01-18T15:51:42.886Z,50.76
2023-01-18T15:56:46.228Z,50.87
2023-01-18T16:02:13.614Z,50.99
2023-01-18T16:07:37.531Z,50.76
2023-01-18T16:12:40.414Z,50.82
2023-01-18T16:17:44.870Z,51.15
2023-01-18T16:22:48.313Z,50.92
2023-01-18T16:27:53.027Z,50.81
2023-01-18T16:32:54.734Z,50.97
2023-01-18T16:37:57.934Z,51.52
2023-01-18T16:43:07.573Z,51.21
2023-01-18T16:48:16.981Z,50.92
2023-01-18T16:53:18.831Z,51.65
2023-01-18T16:58:21.385Z,51.44
2023-01-18T17:03:23.753Z,51.14
2023-01-18T17:08:25.487Z,51.11
2023-01-18T17:13:27.359Z,51.49
2023-01-18T17:18:29.043Z,51.09
2023-01-18T17:23:30.716Z,51.43
2023-01-18T17:28:32.553Z,50.95
2023-01-18T17:33:38.505Z,51.37
2023-01-18T17:38:40.387Z,51.38
2023-01-18T17:43:42.112Z,51.14
2023-01-18T17:48:44.489Z,51.41
2023-01-18T17:53:47.943Z,51.26
2023-01-18T17:58:54.355Z,51.85
2023-01-18T18:09:12.748Z,51.16
2023-01-18T18:14:14.943Z,51.17
2023-01-18T18:19:16.898Z,50.96
2023-01-18T18:24:18.896Z,51.08
2023-01-18T18:29:20.915Z,51.41
2023-01-18T18:34:22.759Z,51.52
2023-01-18T18:39:24.775Z,51.60
2023-01-18T18:44:27.721Z,51.54
2023-01-18T18:49:29.853Z,51.43
2023-01-18T18:54:31.698Z,51.21
2023-01-18T18:59:33.347Z,51.10
2023-01-18T19:04:35.112Z,50.81
2023-01-18T19:09:37.087Z,50.99
2023-01-18T19:14:39.219Z,50.70
2023-01-18T19:19:41.097Z,50.69
2023-01-18T19:24:43.341Z,50.93
2023-01-18T19:29:45.203Z,50.87
2023-01-18T19:34:47.136Z,51.14
2023-01-18T19:39:49.076Z,50.68
2023-01-18T19:44:53.827Z,51.02
2023-01-18T19:49:57.574Z,50.97
2023-01-18T19:54:59.473Z,50.62
2023-01-18T20:00:07.124Z,50.73
2023-01-18T20:05:13.649Z,50.86
2023-01-18T20:10:20.173Z,50.60
2023-01-18T20:15:23.113Z,50.81
2023-01-18T20:20:32.608Z,51.10
2023-01-18T20:25:34.677Z,50.85
2023-01-18T20:30:36.780Z,51.09
2023-01-18T20:35:39.184Z,50.86
2023-01-18T20:40:41.146Z,51.45
2023-01-18T20:45:42.969Z,50.77
2023-01-18T20:50:44.730Z,51.42
2023-01-18T20:55:46.671Z,50.88
2023-01-18T21:00:49.268Z,50.99
2023-01-18T21:05:53.459Z,51.11
2023-01-18T21:10:55.263Z,50.99
2023-01-18T21:15:58.791Z,50.73
2023-01-18T21:21:01.040Z,50.97
2023-01-18T21:26:02.899Z,51.33
2023-01-18T21:31:05.554Z,51.38
2023-01-18T21:36:11.924Z,51.58
2023-01-18T21:41:32.641Z,51.31
2023-01-18T21:46:34.438Z,50.82
2023-01-18T21:51:54.813Z,51.37
2023-01-18T21:56:56.683Z,51.28
2023-01-18T22:01:58.596Z,51.24
2023-01-18T22:07:01.230Z,51.37
2023-01-18T22:12:02.982Z,51.33
2023-01-18T22:17:05.020Z,51.47
2023-01-18T22:22:06.937Z,51.44
2023-01-18T22:27:09.056Z,51.39
2023-01-18T22:32:10.802Z,51.10
2023-01-18T22:37:12.668Z,51.15
2023-01-18T22:42:15.585Z,51.13
2023-01-18T22:47:17.412Z,51.29
2023-01-18T22:52:19.489Z,51.18
2023-01-18T22:57:23.276Z,51.31
2023-01-18T23:02:25.109Z,51.12
2023-01-18T23:07:26.911Z,51.52
2023-01-18T23:12:28.733Z,51.36
2023-01-18T23:17:39.675Z,50.95
2023-01-18T23:22:41.590Z,51.33
2023-01-18T23:27:43.912Z,50.98
2023-01-18T23:32:45.883Z,50.78
2023-01-18T23:37:47.793Z,50.55
2023-01-18T23:43:11.846Z,50.32
2023-01-18T23:48:38.391Z,50.20
2023-01-18T23:53:58.761Z,50.11
2023-01-18T23:59:00.568Z,50.68
